Time;durP1;ratioP1;P1;durP2;ratioP2;P2;SDS_P1;SDS_P2;PMS_P1;PMS_P2;Temp;Humidity;BMP_temperature;BMP_pressure;BME280_temperature;BME280_humidity;BME280_pressure;Samples;Min_cycle;Max_cycle;Signal;HPM_P1;HPM_P2
2021/09/24 00:00:28;;;;;;;;;;;;;;;21.16;54.89;98762.44;2066640;28;687;-64
2021/09/24 00:01:28;;;;;;;;;;;;;;;21.15;55.07;98765.22;2066474;28;966;-64
2021/09/24 00:02:28;;;;;;;;;;;;;;;21.15;55.30;98765.22;2058045;28;855;-64
2021/09/24 00:03:28;;;;;;;;;;;;;;;21.14;55.85;98766.19;2058128;28;848;-64
2021/09/24 00:04:30;;;;;;;;;;;;;;;21.17;54.65;98771.38;2066439;28;1973;-64
2021/09/24 00:05:30;;;;;;;;;;;;;;;21.15;54.53;98765.22;2066691;28;792;-64
2021/09/24 00:06:30;;;;;;;;;;;;;;;21.13;55.22;98776.13;2066631;28;957;-64
2021/09/24 00:07:30;;;;;;;;;;;;;;;21.13;55.55;98772.53;2066665;28;970;-64
2021/09/24 00:08:31;;;;;;;;;;;;;;;21.14;54.90;98775.16;2066672;28;981;-64
2021/09/24 00:09:31;;;;;;;;;;;;;;;21.15;55.13;98776.88;2066700;28;1036;-64
2021/09/24 00:10:31;;;;;;;;;;;;;;;21.15;54.76;98776.00;2058003;28;871;-64
2021/09/24 00:11:32;;;;;;;;;;;;;;;21.15;54.97;98773.31;2058068;28;768;-64
2021/09/24 00:12:32;;;;;;;;;;;;;;;21.16;54.70;98778.59;2066331;28;966;-64
2021/09/24 00:13:32;;;;;;;;;;;;;;;21.15;54.81;98781.38;2066699;28;930;-64
2021/09/24 00:14:32;;;;;;;;;;;;;;;21.13;55.39;98777.94;2067426;28;871;-64
2021/09/24 00:15:33;;;;;;;;;;;;;;;21.12;54.93;98785.16;2068141;28;855;-64
2021/09/24 00:16:33;;;;;;;;;;;;;;;21.11;55.48;98777.16;2068079;28;969;-65
2021/09/24 00:17:33;;;;;;;;;;;;;;;21.14;54.54;98787.72;2067977;28;994;-64
2021/09/24 00:18:33;;;;;;;;;;;;;;;21.10;55.32;98781.69;2068694;28;883;-64
2021/09/24 00:19:33;;;;;;;;;;;;;;;21.10;55.18;98784.41;2068064;28;843;-64
2021/09/24 00:20:34;;;;;;;;;;;;;;;21.11;54.92;98787.94;2068053;28;890;-64
2021/09/24 00:21:34;;;;;;;;;;;;;;;21.13;55.33;98792.25;2067898;28;875;-64
2021/09/24 00:22:34;;;;;;;;;;;;;;;21.13;55.32;98786.88;2067493;28;768;-64
2021/09/24 00:23:34;;;;;;;;;;;;;;;21.14;55.19;98785.03;2071871;28;1922;-64
2021/09/24 00:24:34;;;;;;;;;;;;;;;21.12;54.47;98793.22;2075844;28;792;-64
2021/09/24 00:25:35;;;;;;;;;;;;;;;21.12;54.91;98789.66;2075874;28;827;-64
2021/09/24 00:26:35;;;;;;;;;;;;;;;21.15;54.40;98784.94;2075520;28;848;-64
2021/09/24 00:27:35;;;;;;;;;;;;;;;21.15;54.90;98794.84;2075461;28;768;-64
2021/09/24 00:28:35;;;;;;;;;;;;;;;21.15;55.05;98789.47;2076108;28;1037;-64
2021/09/24 00:29:35;;;;;;;;;;;;;;;21.16;54.42;98794.75;2075891;28;769;-64
2021/09/24 00:30:36;;;;;;;;;;;;;;;21.15;55.37;98794.84;2075959;28;1261;-64
2021/09/24 00:31:36;;;;;;;;;;;;;;;21.16;54.34;98791.19;2076089;28;973;-64
2021/09/24 00:32:36;;;;;;;;;;;;;;;21.15;54.44;98794.84;2075884;28;829;-64
2021/09/24 00:33:36;;;;;;;;;;;;;;;21.13;55.57;98803.03;2075741;28;1299;-64
2021/09/24 00:34:36;;;;;;;;;;;;;;;21.15;54.51;98803.78;2076021;28;1196;-64
2021/09/24 00:35:37;;;;;;;;;;;;;;;21.16;54.28;98802.81;2076061;28;851;-64
2021/09/24 00:36:37;;;;;;;;;;;;;;;21.16;54.01;98800.13;2075996;28;1033;-64
2021/09/24 00:37:37;;;;;;;;;;;;;;;21.16;54.83;98802.81;2076055;28;764;-64
2021/09/24 00:38:40;;;;;;;;;;;;;;;21.15;54.63;98806.50;2075922;28;823;-64
2021/09/24 00:39:40;;;;;;;;;;;;;;;21.13;54.98;98804.84;2076084;28;832;-64
2021/09/24 00:40:40;;;;;;;;;;;;;;;21.14;55.23;98812.84;2075987;28;1002;-64
2021/09/24 00:41:40;;;;;;;;;;;;;;;21.13;54.83;98808.41;2075764;28;1031;-64
2021/09/24 00:42:41;;;;;;;;;;;;;;;21.14;55.07;98811.97;2076039;28;1018;-64
2021/09/24 00:43:41;;;;;;;;;;;;;;;21.13;54.99;98813.81;2076082;28;1977;-64
2021/09/24 00:44:47;;;;;;;;;;;;;;;21.12;54.53;98816.59;2075884;28;804;-64
2021/09/24 00:45:48;;;;;;;;;;;;;;;21.15;54.70;98811.88;2076022;28;843;-64
2021/09/24 00:46:48;;;;;;;;;;;;;;;21.14;54.86;98812.84;2066948;28;978;-65
2021/09/24 00:47:48;;;;;;;;;;;;;;;21.16;54.52;98807.34;2067227;28;978;-64
2021/09/24 00:48:48;;;;;;;;;;;;;;;21.12;54.76;98814.78;2075903;28;823;-64
2021/09/24 00:49:49;;;;;;;;;;;;;;;21.12;54.54;98820.16;2075655;28;815;-64
2021/09/24 00:50:49;;;;;;;;;;;;;;;21.13;55.23;98821.00;2075949;28;1044;-64
2021/09/24 00:51:49;;;;;;;;;;;;;;;21.11;55.24;98815.75;2075896;28;780;-64
2021/09/24 00:52:53;;;;;;;;;;;;;;;21.15;55.03;98817.25;2075867;28;966;-64
2021/09/24 00:53:53;;;;;;;;;;;;;;;21.11;55.24;98826.50;2075950;28;766;-64
2021/09/24 00:54:53;;;;;;;;;;;;;;;21.13;54.42;98816.50;2075704;28;896;-64
2021/09/24 00:55:54;;;;;;;;;;;;;;;21.11;55.24;98818.44;2075450;28;994;-64
2021/09/24 00:56:54;;;;;;;;;;;;;;;21.14;54.91;98823.59;2075597;28;895;-64
2021/09/24 00:57:54;;;;;;;;;;;;;;;21.13;55.28;98821.00;2075749;28;998;-64
2021/09/24 00:58:54;;;;;;;;;;;;;;;21.11;55.01;98815.75;2075901;28;895;-64
2021/09/24 00:59:55;;;;;;;;;;;;;;;21.11;54.79;98823.81;2075773;28;784;-65
2021/09/24 01:00:55;;;;;;;;;;;;;;;21.11;55.05;98831.88;2075857;28;796;-64
2021/09/24 01:01:56;;;;;;;;;;;;;;;21.13;55.03;98829.06;2075878;28;796;-64
2021/09/24 01:02:56;;;;;;;;;;;;;;;21.13;54.92;98834.47;2075813;28;1041;-64
2021/09/24 01:03:56;;;;;;;;;;;;;;;21.16;54.23;98826.19;2075737;28;1957;-64
2021/09/24 01:04:56;;;;;;;;;;;;;;;21.14;54.66;98834.38;2075762;28;1056;-64
2021/09/24 01:05:57;;;;;;;;;;;;;;;21.15;54.79;98832.53;2075815;28;1036;-64
2021/09/24 01:06:57;;;;;;;;;;;;;;;21.11;54.85;98833.69;2075850;28;1041;-64
2021/09/24 01:07:57;;;;;;;;;;;;;;;21.11;54.97;98837.28;2075510;28;835;-64
2021/09/24 01:08:57;;;;;;;;;;;;;;;21.14;54.14;98834.38;2075713;28;978;-64
2021/09/24 01:09:57;;;;;;;;;;;;;;;21.14;54.49;98839.75;2075239;28;864;-64
2021/09/24 01:10:58;;;;;;;;;;;;;;;21.12;54.57;98836.31;2074619;28;962;-64
2021/09/24 01:11:58;;;;;;;;;;;;;;;21.10;55.24;98838.25;2075565;28;769;-64
2021/09/24 01:12:58;;;;;;;;;;;;;;;21.15;54.81;98840.59;2075700;28;1009;-64
2021/09/24 01:13:59;;;;;;;;;;;;;;;21.12;54.61;98839.00;2075486;28;835;-64
2021/09/24 01:14:59;;;;;;;;;;;;;;;21.13;54.06;98843.41;2075722;28;868;-64
2021/09/24 01:15:59;;;;;;;;;;;;;;;21.13;54.77;98850.63;2075736;28;784;-65
2021/09/24 01:17:00;;;;;;;;;;;;;;;21.13;54.90;98846.13;2075738;28;970;-64
2021/09/24 01:18:00;;;;;;;;;;;;;;;21.12;54.74;98854.28;2075672;28;807;-64
2021/09/24 01:19:00;;;;;;;;;;;;;;;21.12;54.98;98857.84;2075325;28;856;-64
2021/09/24 01:20:01;;;;;;;;;;;;;;;21.13;54.51;98854.19;2075656;28;985;-64
2021/09/24 01:21:01;;;;;;;;;;;;;;;21.13;54.99;98856.88;2075693;28;1018;-64
2021/09/24 01:22:02;;;;;;;;;;;;;;;21.12;54.93;98851.59;2075637;28;1041;-64
2021/09/24 01:23:03;;;;;;;;;;;;;;;21.13;54.73;98856.00;2075600;28;1373;-64
2021/09/24 01:24:03;;;;;;;;;;;;;;;21.12;54.01;98855.16;2067472;28;1890;-64
2021/09/24 01:25:04;;;;;;;;;;;;;;;21.10;54.48;98856.19;2067579;28;974;-64
2021/09/24 01:26:05;;;;;;;;;;;;;;;21.13;54.57;98853.31;2066460;28;820;-65
2021/09/24 01:27:05;;;;;;;;;;;;;;;21.15;53.78;98854.94;2067573;28;1148;-64
2021/09/24 01:28:05;;;;;;;;;;;;;;;21.11;55.25;98848.03;2067527;28;875;-64
2021/09/24 01:29:05;;;;;;;;;;;;;;;21.11;55.16;98856.13;2067557;28;978;-64
2021/09/24 01:30:06;;;;;;;;;;;;;;;21.15;54.03;98857.63;2067479;28;990;-65
2021/09/24 01:31:06;;;;;;;;;;;;;;;21.13;55.10;98858.69;2067364;28;834;-64
2021/09/24 01:32:07;;;;;;;;;;;;;;;21.11;54.66;98861.50;2067020;28;1014;-64
2021/09/24 01:33:07;;;;;;;;;;;;;;;21.12;54.85;98857.84;2067126;28;1282;-64
2021/09/24 01:34:07;;;;;;;;;;;;;;;21.12;54.53;98859.66;2066500;28;1083;-65
2021/09/24 01:35:08;;;;;;;;;;;;;;;21.11;54.44;98866.88;2066502;28;1021;-64
2021/09/24 01:36:08;;;;;;;;;;;;;;;21.10;55.01;98866.97;2067403;28;1262;-64
2021/09/24 01:37:08;;;;;;;;;;;;;;;21.14;53.95;98861.28;2067577;28;1029;-64
2021/09/24 01:38:10;;;;;;;;;;;;;;;21.11;54.66;98871.38;2067015;28;1199;-64
2021/09/24 01:39:10;;;;;;;;;;;;;;;21.10;55.18;98875.94;2067373;28;788;-64
2021/09/24 01:40:12;;;;;;;;;;;;;;;21.12;54.63;98867.72;2067231;28;847;-64
2021/09/24 01:41:12;;;;;;;;;;;;;;;21.13;54.28;98881.09;2067397;28;1342;-64
2021/09/24 01:42:12;;;;;;;;;;;;;;;21.10;54.05;98870.53;2067430;28;808;-64
2021/09/24 01:43:13;;;;;;;;;;;;;;;21.09;55.24;98882.28;2067392;28;1467;-65
2021/09/24 01:44:13;;;;;;;;;;;;;;;21.12;55.34;98873.13;2067324;28;1918;-64
2021/09/24 01:45:13;;;;;;;;;;;;;;;21.08;55.42;98869.78;2067306;28;958;-64
2021/09/24 01:46:14;;;;;;;;;;;;;;;21.10;54.64;98877.75;2067363;28;839;-64
2021/09/24 01:47:14;;;;;;;;;;;;;;;21.04;55.17;98879.03;2067450;28;986;-64
2021/09/24 01:48:14;;;;;;;;;;;;;;;21.07;55.27;98883.31;2067179;28;894;-64
2021/09/24 01:49:15;;;;;;;;;;;;;;;21.08;54.83;98885.06;2067420;28;1024;-64
2021/09/24 01:50:15;;;;;;;;;;;;;;;21.10;54.97;98885.81;2067187;28;854;-64
2021/09/24 01:51:15;;;;;;;;;;;;;;;21.06;54.93;98887.88;2067437;28;1033;-64
2021/09/24 01:52:15;;;;;;;;;;;;;;;21.07;54.99;98897.66;2067401;28;799;-64
2021/09/24 01:53:16;;;;;;;;;;;;;;;21.06;55.42;98895.94;2067440;28;1036;-64
2021/09/24 01:54:18;;;;;;;;;;;;;;;21.06;55.56;98890.56;2067293;28;1052;-64
2021/09/24 01:55:18;;;;;;;;;;;;;;;21.07;54.95;98900.34;2067358;28;969;-64
2021/09/24 01:56:21;;;;;;;;;;;;;;;21.08;55.32;98899.41;2067339;28;862;-64
2021/09/24 01:57:21;;;;;;;;;;;;;;;21.03;55.21;98893.44;2067299;28;819;-64
2021/09/24 01:58:21;;;;;;;;;;;;;;;21.07;54.50;98905.75;2067045;28;990;-64
2021/09/24 01:59:21;;;;;;;;;;;;;;;21.03;55.01;98918.53;2058690;28;1568;-64
2021/09/24 02:00:21;;;;;;;;;;;;;;;21.04;54.77;98914.03;2058743;28;1068;-65
2021/09/24 02:01:22;;;;;;;;;;;;;;;21.08;54.87;98915.53;2067040;28;1034;-64
2021/09/24 02:02:22;;;;;;;;;;;;;;;21.08;55.17;98911.97;2067485;28;1069;-64
2021/09/24 02:03:22;;;;;;;;;;;;;;;21.05;54.78;98920.25;2067755;28;760;-64
2021/09/24 02:04:22;;;;;;;;;;;;;;;21.06;55.24;98916.59;2067216;28;1952;-65
2021/09/24 02:05:22;;;;;;;;;;;;;;;21.05;55.41;98918.44;2068610;28;1127;-64
2021/09/24 02:06:23;;;;;;;;;;;;;;;21.08;54.81;98926.31;2075057;28;852;-64
2021/09/24 02:07:23;;;;;;;;;;;;;;;21.05;54.91;98926.50;2074844;28;1195;-64
2021/09/24 02:08:23;;;;;;;;;;;;;;;21.06;54.55;98930.06;2075362;28;772;-64
2021/09/24 02:09:23;;;;;;;;;;;;;;;21.04;54.70;98932.88;2075272;28;1053;-64
2021/09/24 02:10:24;;;;;;;;;;;;;;;21.03;55.66;98931.13;2075351;28;820;-64
2021/09/24 02:11:24;;;;;;;;;;;;;;;21.02;55.63;98940.16;2075295;28;775;-64
2021/09/24 02:12:24;;;;;;;;;;;;;;;21.04;54.74;98943.63;2075354;28;989;-64
2021/09/24 02:13:24;;;;;;;;;;;;;;;21.07;55.13;98946.13;2075276;28;831;-65
2021/09/24 02:14:24;;;;;;;;;;;;;;;21.06;54.80;98941.69;2075184;28;793;-64
2021/09/24 02:15:25;;;;;;;;;;;;;;;21.02;55.49;98948.25;2074662;28;966;-64
2021/09/24 02:16:26;;;;;;;;;;;;;;;21.06;55.64;98944.41;2074520;28;1000;-64
2021/09/24 02:17:26;;;;;;;;;;;;;;;21.06;55.00;98951.59;2075356;28;865;-64
2021/09/24 02:18:26;;;;;;;;;;;;;;;21.01;54.87;98955.44;2075244;28;784;-64
2021/09/24 02:19:26;;;;;;;;;;;;;;;21.03;55.32;98955.38;2075025;28;1033;-64
2021/09/24 02:20:27;;;;;;;;;;;;;;;21.04;55.08;98951.72;2075262;28;1054;-64
2021/09/24 02:21:27;;;;;;;;;;;;;;;21.02;54.76;98949.09;2075225;28;867;-64
2021/09/24 02:22:27;;;;;;;;;;;;;;;21.03;55.73;98964.28;2075067;28;1070;-64
2021/09/24 02:23:27;;;;;;;;;;;;;;;21.00;54.63;98966.31;2075206;28;1442;-64
2021/09/24 02:24:28;;;;;;;;;;;;;;;21.04;54.66;98965.16;2075104;28;1882;-64
2021/09/24 02:25:28;;;;;;;;;;;;;;;21.05;54.78;98963.31;2074623;28;855;-64
2021/09/24 02:26:28;;;;;;;;;;;;;;;21.05;54.72;98968.72;2075181;28;843;-65
2021/09/24 02:27:28;;;;;;;;;;;;;;;21.02;55.13;98964.41;2075147;28;776;-64
2021/09/24 02:28:29;;;;;;;;;;;;;;;21.02;55.31;98965.25;2075209;28;918;-64
2021/09/24 02:29:29;;;;;;;;;;;;;;;21.02;55.52;98967.94;2075201;28;852;-64
2021/09/24 02:30:29;;;;;;;;;;;;;;;21.03;55.11;98966.13;2074836;28;981;-64
2021/09/24 02:31:29;;;;;;;;;;;;;;;21.08;54.89;98969.38;2075161;28;861;-64
2021/09/24 02:32:30;;;;;;;;;;;;;;;21.05;55.58;98966.91;2075177;28;985;-64
2021/09/24 02:33:30;;;;;;;;;;;;;;;21.02;55.96;98976.00;2075054;28;974;-64
2021/09/24 02:34:30;;;;;;;;;;;;;;;21.06;55.41;98971.31;2075039;28;1360;-64
2021/09/24 02:35:30;;;;;;;;;;;;;;;21.02;54.96;98978.72;2075134;28;884;-64
2021/09/24 02:36:30;;;;;;;;;;;;;;;21.06;54.83;98986.59;2075209;28;820;-64
2021/09/24 02:37:30;;;;;;;;;;;;;;;21.03;54.78;98983.13;2074868;28;819;-64
2021/09/24 02:38:31;;;;;;;;;;;;;;;21.06;55.12;98991.97;2075025;28;856;-64
2021/09/24 02:39:31;;;;;;;;;;;;;;;21.05;55.20;98992.94;2075045;28;832;-64
2021/09/24 02:40:31;;;;;;;;;;;;;;;21.06;54.76;98991.97;2074823;28;788;-64
2021/09/24 02:41:31;;;;;;;;;;;;;;;21.07;55.06;98991.00;2074979;28;1029;-64
2021/09/24 02:42:32;;;;;;;;;;;;;;;21.05;55.01;98990.25;2075141;28;819;-64
2021/09/24 02:43:32;;;;;;;;;;;;;;;21.06;54.92;98990.16;2075030;28;942;-64
2021/09/24 02:44:33;;;;;;;;;;;;;;;21.06;54.99;98992.84;2074976;28;1971;-64
2021/09/24 02:45:33;;;;;;;;;;;;;;;21.02;55.04;98994.00;2075082;28;869;-64
2021/09/24 02:46:33;;;;;;;;;;;;;;;21.03;55.18;98998.44;2074988;28;1057;-64
2021/09/24 02:47:33;;;;;;;;;;;;;;;21.04;54.93;98994.78;2075322;28;926;-64
2021/09/24 02:48:33;;;;;;;;;;;;;;;21.05;55.11;98988.44;2074978;28;816;-64
2021/09/24 02:49:33;;;;;;;;;;;;;;;21.08;54.15;99006.19;2074966;28;1029;-64
2021/09/24 02:50:34;;;;;;;;;;;;;;;21.03;56.03;99004.66;2074738;28;795;-64
2021/09/24 02:51:34;;;;;;;;;;;;;;;21.05;55.16;98952.56;2074974;28;944;-64
2021/09/24 02:52:34;;;;;;;;;;;;;;;21.01;54.78;98952.75;2074996;28;1032;-65
2021/09/24 02:53:35;;;;;;;;;;;;;;;21.03;55.37;98956.22;2074948;28;887;-64
2021/09/24 02:54:35;;;;;;;;;;;;;;;21.04;55.34;98959.78;2075053;28;1010;-64
2021/09/24 02:55:35;;;;;;;;;;;;;;;21.06;55.57;98960.53;2066289;28;786;-64
2021/09/24 02:56:35;;;;;;;;;;;;;;;21.05;55.24;98945.34;2066405;28;875;-64
2021/09/24 02:57:36;;;;;;;;;;;;;;;21.04;55.41;98959.78;2075035;28;978;-64
2021/09/24 02:58:36;;;;;;;;;;;;;;;21.04;55.47;99002.84;2074981;28;993;-64
2021/09/24 02:59:36;;;;;;;;;;;;;;;21.04;54.52;99070.16;2074775;28;808;-64
2021/09/24 03:00:36;;;;;;;;;;;;;;;21.03;54.84;99042.34;2074973;28;1033;-64
2021/09/24 03:01:37;;;;;;;;;;;;;;;21.05;55.15;99036.00;2075025;28;1048;-64
2021/09/24 03:02:38;;;;;;;;;;;;;;;21.02;54.47;99037.94;2074950;28;958;-64
2021/09/24 03:03:38;;;;;;;;;;;;;;;21.01;55.64;99038.88;2074948;28;1890;-64
2021/09/24 03:04:38;;;;;;;;;;;;;;;21.03;55.08;99036.13;2074954;28;1079;-64
2021/09/24 03:05:38;;;;;;;;;;;;;;;21.00;55.48;99041.69;2074896;28;816;-64
2021/09/24 03:06:38;;;;;;;;;;;;;;;21.03;55.36;99042.34;2074994;28;977;-64
2021/09/24 03:07:38;;;;;;;;;;;;;;;21.04;54.96;99045.94;2074955;28;765;-64
2021/09/24 03:08:39;;;;;;;;;;;;;;;21.05;55.00;99042.28;2075008;28;1028;-64
2021/09/24 03:09:39;;;;;;;;;;;;;;;21.04;55.55;99040.53;2075031;28;902;-64
2021/09/24 03:10:39;;;;;;;;;;;;;;;21.02;54.69;99050.53;2075219;28;685;-64
2021/09/24 03:11:39;;;;;;;;;;;;;;;21.01;55.44;99038.03;2075217;28;897;-64
2021/09/24 03:12:40;;;;;;;;;;;;;;;21.04;54.85;99035.16;2074905;28;958;-63
2021/09/24 03:13:40;;;;;;;;;;;;;;;21.08;55.25;99035.81;2074602;28;891;-64
2021/09/24 03:14:40;;;;;;;;;;;;;;;21.06;55.48;99041.31;2074620;28;808;-65
2021/09/24 03:15:40;;;;;;;;;;;;;;;21.07;54.99;99036.78;2074489;28;835;-64
2021/09/24 03:16:42;;;;;;;;;;;;;;;21.05;54.71;99036.88;2074369;28;843;-65
2021/09/24 03:17:42;;;;;;;;;;;;;;;21.07;55.13;99036.78;2074549;28;792;-64
2021/09/24 03:18:42;;;;;;;;;;;;;;;21.07;55.34;99042.16;2074829;28;780;-64
2021/09/24 03:19:43;;;;;;;;;;;;;;;21.05;54.83;99041.38;2074976;28;861;-64
2021/09/24 03:20:43;;;;;;;;;;;;;;;21.06;54.62;99037.75;2074886;28;796;-64
2021/09/24 03:21:43;;;;;;;;;;;;;;;21.05;54.94;99044.97;2074971;28;740;-64
2021/09/24 03:22:43;;;;;;;;;;;;;;;21.05;54.68;99023.44;2074946;28;911;-64
2021/09/24 03:23:44;;;;;;;;;;;;;;;21.02;55.61;99029.84;2069472;28;1890;-64
2021/09/24 03:24:44;;;;;;;;;;;;;;;21.04;55.52;99029.78;2057956;28;702;-64
2021/09/24 03:25:45;;;;;;;;;;;;;;;21.10;54.68;99031.19;2058287;28;871;-64
2021/09/24 03:26:46;;;;;;;;;;;;;;;21.04;55.23;99024.38;2058052;28;1309;-64
2021/09/24 03:27:47;;;;;;;;;;;;;;;21.05;54.62;99025.25;2058237;28;887;-64
2021/09/24 03:28:47;;;;;;;;;;;;;;;21.08;54.80;99033.13;2066850;28;1018;-64
2021/09/24 03:29:47;;;;;;;;;;;;;;;21.10;54.97;99029.38;2066494;28;920;-64
2021/09/24 03:30:48;;;;;;;;;;;;;;;21.12;55.45;99035.53;2066798;28;835;-64
2021/09/24 03:31:48;;;;;;;;;;;;;;;21.11;54.95;99038.31;2066825;28;1118;-64
2021/09/24 03:32:48;;;;;;;;;;;;;;;21.11;55.11;99032.91;2066820;28;1021;-64
2021/09/24 03:33:48;;;;;;;;;;;;;;;21.15;54.94;99039.84;2066911;28;1217;-64
2021/09/24 03:34:49;;;;;;;;;;;;;;;21.11;54.81;99041.88;2066837;28;800;-64
2021/09/24 03:35:49;;;;;;;;;;;;;;;21.13;54.73;99039.06;2066670;28;780;-64
2021/09/24 03:36:49;;;;;;;;;;;;;;;21.17;54.49;99035.22;2066743;28;970;-64
2021/09/24 03:37:49;;;;;;;;;;;;;;;21.18;54.65;99031.56;2066778;28;1180;-64
2021/09/24 03:38:49;;;;;;;;;;;;;;;21.17;54.89;99037.91;2066833;28;981;-64
2021/09/24 03:39:50;;;;;;;;;;;;;;;21.18;54.36;99040.53;2066730;28;777;-64
2021/09/24 03:40:50;;;;;;;;;;;;;;;21.22;54.92;99045.69;2066711;28;858;-64
2021/09/24 03:41:52;;;;;;;;;;;;;;;21.24;54.05;99038.38;2066847;28;1036;-64
2021/09/24 03:42:52;;;;;;;;;;;;;;;21.20;55.09;99036.88;2066520;28;863;-64
2021/09/24 03:43:52;;;;;;;;;;;;;;;21.20;54.37;99036.88;2066727;28;1978;-64
2021/09/24 03:44:53;;;;;;;;;;;;;;;21.24;54.32;99041.94;2066754;28;1048;-64
2021/09/24 03:45:53;;;;;;;;;;;;;;;21.18;54.58;99042.34;2066739;28;962;-64
2021/09/24 03:46:53;;;;;;;;;;;;;;;21.19;54.56;99046.75;2066703;28;965;-64
2021/09/24 03:47:53;;;;;;;;;;;;;;;21.23;54.55;99051.00;2066694;28;813;-64
2021/09/24 03:48:54;;;;;;;;;;;;;;;21.23;54.33;99040.22;2066458;28;839;-64
2021/09/24 03:49:54;;;;;;;;;;;;;;;21.23;54.88;99050.09;2068086;28;970;-64
2021/09/24 03:50:54;;;;;;;;;;;;;;;21.27;54.19;99052.53;2068271;28;993;-64
2021/09/24 03:51:55;;;;;;;;;;;;;;;21.26;54.39;99052.59;2068330;28;981;-64
2021/09/24 03:52:55;;;;;;;;;;;;;;;21.25;54.43;99053.56;2068243;28;1585;-64
2021/09/24 03:53:55;;;;;;;;;;;;;;;21.26;54.71;99058.00;2068280;28;966;-64
2021/09/24 03:54:56;;;;;;;;;;;;;;;21.25;54.67;99061.66;2068302;28;851;-64
2021/09/24 03:55:56;;;;;;;;;;;;;;;21.23;54.24;99053.69;2068228;28;768;-64
2021/09/24 03:56:56;;;;;;;;;;;;;;;21.24;54.91;99060.81;2068325;28;772;-64
2021/09/24 03:57:56;;;;;;;;;;;;;;;21.23;54.21;99067.16;2068181;28;804;-64
2021/09/24 03:58:57;;;;;;;;;;;;;;;21.23;54.84;99069.84;2068436;28;855;-63
2021/09/24 03:59:57;;;;;;;;;;;;;;;21.24;54.89;99068.88;2068140;28;1029;-64
2021/09/24 04:00:57;;;;;;;;;;;;;;;21.24;54.23;99079.66;2068243;28;1021;-64
2021/09/24 04:01:57;;;;;;;;;;;;;;;21.25;54.32;99073.31;2068237;28;792;-64
2021/09/24 04:02:57;;;;;;;;;;;;;;;21.33;53.93;99081.75;2068248;28;855;-64
2021/09/24 04:03:58;;;;;;;;;;;;;;;21.93;53.44;99081.50;2067818;28;1894;-64
2021/09/24 04:04:58;;;;;;;;;;;;;;;22.10;52.18;99072.28;2068258;28;930;-64
2021/09/24 04:05:58;;;;;;;;;;;;;;;22.23;51.58;99074.16;2068224;28;1029;-64
2021/09/24 04:06:58;;;;;;;;;;;;;;;22.26;52.16;99072.13;2068157;28;777;-64
2021/09/24 04:07:58;;;;;;;;;;;;;;;22.32;51.60;99066.31;2068145;28;1194;-63
2021/09/24 04:08:58;;;;;;;;;;;;;;;22.37;51.26;99071.38;2068160;28;961;-64
2021/09/24 04:09:59;;;;;;;;;;;;;;;22.41;51.12;99080.13;2068137;28;978;-63
2021/09/24 04:10:59;;;;;;;;;;;;;;;22.47;51.40;99082.41;2068111;28;862;-64
2021/09/24 04:11:59;;;;;;;;;;;;;;;22.50;50.81;99080.41;2067833;28;1040;-64
2021/09/24 04:12:59;;;;;;;;;;;;;;;22.54;51.01;99086.44;2068160;28;1026;-64
2021/09/24 04:13:59;;;;;;;;;;;;;;;22.59;50.76;99091.53;2068063;28;973;-65
2021/09/24 04:14:59;;;;;;;;;;;;;;;22.60;50.79;99094.09;2068168;28;768;-65
2021/09/24 04:16:00;;;;;;;;;;;;;;;22.62;50.58;99097.56;2068036;28;887;-64
2021/09/24 04:17:00;;;;;;;;;;;;;;;22.63;50.72;99095.75;2067900;28;993;-64
2021/09/24 04:18:00;;;;;;;;;;;;;;;22.69;50.88;99097.97;2068033;28;1037;-64
2021/09/24 04:19:00;;;;;;;;;;;;;;;22.70;50.67;99099.72;2059428;28;1774;-63
2021/09/24 04:20:00;;;;;;;;;;;;;;;22.71;50.67;99106.00;2059076;28;1377;-63
2021/09/24 04:21:00;;;;;;;;;;;;;;;22.72;50.65;99105.03;2067575;28;995;-62
2021/09/24 04:22:01;;;;;;;;;;;;;;;22.73;50.80;99113.00;2067523;28;978;-63
2021/09/24 04:23:01;;;;;;;;;;;;;;;22.75;50.48;99108.34;2067516;28;792;-64
2021/09/24 04:24:01;;;;;;;;;;;;;;;22.77;50.85;99113.66;2074458;28;1949;-63
2021/09/24 04:25:01;;;;;;;;;;;;;;;22.74;50.20;99111.19;2075539;28;785;-63
2021/09/24 04:26:02;;;;;;;;;;;;;;;22.75;50.30;99121.00;2067362;28;792;-64
2021/09/24 04:27:02;;;;;;;;;;;;;;;22.75;50.48;99126.41;2067596;28;1169;-65
2021/09/24 04:28:03;;;;;;;;;;;;;;;22.78;50.45;99131.59;2075908;28;796;-64
2021/09/24 04:29:05;;;;;;;;;;;;;;;22.78;50.68;99131.59;2076172;28;800;-64
2021/09/24 04:30:07;;;;;;;;;;;;;;;22.74;51.00;99141.72;2076171;28;784;-64
2021/09/24 04:31:07;;;;;;;;;;;;;;;22.75;50.45;99139.91;2076132;28;811;-63
2021/09/24 04:32:07;;;;;;;;;;;;;;;22.76;50.50;99147.88;2076170;28;1427;-64
2021/09/24 04:33:07;;;;;;;;;;;;;;;22.75;51.06;99139.91;2076067;28;844;-63
2021/09/24 04:34:09;;;;;;;;;;;;;;;22.79;50.92;99142.25;2075864;28;1226;-64
2021/09/24 04:35:09;;;;;;;;;;;;;;;22.79;51.02;99155.75;2067398;28;1265;-63
2021/09/24 04:36:09;;;;;;;;;;;;;;;22.77;51.54;99156.84;2067303;28;839;-64
2021/09/24 04:37:10;;;;;;;;;;;;;;;22.79;50.17;99158.47;2076037;28;843;-64
2021/09/24 04:38:10;;;;;;;;;;;;;;;22.77;50.69;99165.78;2076059;28;969;-64
2021/09/24 04:39:10;;;;;;;;;;;;;;;22.80;50.00;99175.53;2075779;28;1010;-64
2021/09/24 04:40:11;;;;;;;;;;;;;;;22.82;51.52;99172.72;2076026;28;851;-64
2021/09/24 04:41:11;;;;;;;;;;;;;;;22.80;51.33;99179.09;2076039;28;981;-64
2021/09/24 04:42:11;;;;;;;;;;;;;;;22.78;51.06;99182.88;2076018;28;1028;-64
2021/09/24 04:43:11;;;;;;;;;;;;;;;22.81;50.83;99190.75;2076018;28;816;-64
2021/09/24 04:44:11;;;;;;;;;;;;;;;22.79;51.80;99188.16;2076020;28;1918;-63
2021/09/24 04:45:12;;;;;;;;;;;;;;;22.84;50.67;99187.84;2076082;28;1295;-64
2021/09/24 04:46:12;;;;;;;;;;;;;;;22.84;50.69;99190.56;2076015;28;993;-64
2021/09/24 04:47:12;;;;;;;;;;;;;;;22.80;50.94;99197.97;2075682;28;970;-64
2021/09/24 04:48:12;;;;;;;;;;;;;;;22.82;51.10;99199.72;2075965;28;768;-64
2021/09/24 04:49:13;;;;;;;;;;;;;;;22.84;50.94;99205.88;2076055;28;974;-64
2021/09/24 04:50:13;;;;;;;;;;;;;;;22.81;51.53;99212.34;2075876;28;997;-64
2021/09/24 04:51:13;;;;;;;;;;;;;;;22.83;51.75;99213.13;2075940;28;970;-64
2021/09/24 04:52:13;;;;;;;;;;;;;;;22.84;51.35;99219.38;2075923;28;863;-64
2021/09/24 04:53:13;;;;;;;;;;;;;;;22.82;50.87;99215.91;2076011;28;962;-64
2021/09/24 04:54:14;;;;;;;;;;;;;;;22.84;50.77;99219.38;2075907;28;966;-64
2021/09/24 04:55:14;;;;;;;;;;;;;;;22.84;51.13;99227.47;2075987;28;796;-64
2021/09/24 04:56:14;;;;;;;;;;;;;;;22.85;51.03;99227.38;2067127;28;797;-64
2021/09/24 04:57:14;;;;;;;;;;;;;;;22.88;50.31;99231.69;2067224;28;974;-64
2021/09/24 04:58:15;;;;;;;;;;;;;;;22.85;50.58;99221.09;2075451;28;1037;-64
2021/09/24 04:59:15;;;;;;;;;;;;;;;22.84;50.87;99235.56;2075623;28;772;-63
2021/09/24 05:00:15;;;;;;;;;;;;;;;22.87;50.91;99233.53;2075522;28;974;-64
2021/09/24 05:01:16;;;;;;;;;;;;;;;22.83;51.05;99226.63;2075943;28;788;-64
2021/09/24 05:02:16;;;;;;;;;;;;;;;22.89;50.46;99226.19;2075909;28;914;-64
2021/09/24 05:03:16;;;;;;;;;;;;;;;22.89;50.63;99238.81;2075865;28;986;-64
2021/09/24 05:04:16;;;;;;;;;;;;;;;22.90;50.65;99236.03;2075788;28;1890;-64
2021/09/24 05:05:16;;;;;;;;;;;;;;;22.89;51.25;99245.09;2075826;28;1072;-64
2021/09/24 05:06:17;;;;;;;;;;;;;;;22.85;51.06;99240.88;2075879;28;831;-64
2021/09/24 05:07:17;;;;;;;;;;;;;;;22.92;51.21;99244.00;2076090;28;807;-63
2021/09/24 05:08:17;;;;;;;;;;;;;;;22.91;50.94;99242.28;2075885;28;981;-64
2021/09/24 05:09:17;;;;;;;;;;;;;;;22.90;51.15;99241.44;2075863;28;920;-64
2021/09/24 05:10:17;;;;;;;;;;;;;;;22.91;50.01;99240.47;2075703;28;1037;-64
2021/09/24 05:11:17;;;;;;;;;;;;;;;22.91;50.65;99240.47;2075867;28;866;-64
2021/09/24 05:12:18;;;;;;;;;;;;;;;22.92;50.37;99239.50;2075665;28;996;-64
2021/09/24 05:13:18;;;;;;;;;;;;;;;22.93;50.94;99240.34;2075460;28;1068;-64
2021/09/24 05:14:18;;;;;;;;;;;;;;;22.90;50.58;99244.13;2075705;28;1101;-64
2021/09/24 05:15:18;;;;;;;;;;;;;;;22.91;50.38;99248.56;2075802;28;962;-64
2021/09/24 05:16:18;;;;;;;;;;;;;;;22.89;50.94;99245.09;2075333;28;863;-64
2021/09/24 05:17:19;;;;;;;;;;;;;;;22.91;51.44;99244.97;2075795;28;965;-64
2021/09/24 05:18:19;;;;;;;;;;;;;;;22.92;50.42;99252.13;2075697;28;811;-64
2021/09/24 05:19:19;;;;;;;;;;;;;;;22.93;50.40;99257.44;2075486;28;776;-64
2021/09/24 05:20:19;;;;;;;;;;;;;;;22.90;50.75;99254.94;2075689;28;978;-64
2021/09/24 05:21:20;;;;;;;;;;;;;;;22.90;51.03;99254.94;2075715;28;836;-64